createdAt,value
2023-03-01T00:02:16.271Z,100741.22
2023-03-01T00:04:43.183Z,100734.03
2023-03-01T00:07:12.382Z,100742.47
2023-03-01T00:09:39.306Z,100738.25
2023-03-01T00:12:06.588Z,100744.06
2023-03-01T00:14:33.695Z,100744.81
2023-03-01T00:17:00.771Z,100743.53
2023-03-01T00:19:27.497Z,100742.16
2023-03-01T00:21:54.211Z,100745.22
2023-03-01T00:24:20.901Z,100747.53
2023-03-01T00:26:47.992Z,100740.38
2023-03-01T00:29:14.900Z,100741.31
2023-03-01T00:34:08.345Z,100733.41
2023-03-01T00:36:37.665Z,100729.59
2023-03-01T00:39:06.990Z,100722.00
2023-03-01T00:41:35.769Z,100711.84
2023-03-01T00:44:02.992Z,100709.44
2023-03-01T00:46:31.671Z,100702.13
2023-03-01T00:48:58.699Z,100711.00
2023-03-01T00:51:27.977Z,100707.72
2023-03-01T00:53:57.848Z,100702.97
2023-03-01T00:56:24.947Z,100701.50
2023-03-01T00:58:52.033Z,100699.38
2023-03-01T01:01:22.112Z,100702.56
2023-03-01T01:03:55.255Z,100688.63
2023-03-01T01:06:24.824Z,100701.91
2023-03-01T01:08:53.082Z,100696.34
2023-03-01T01:11:20.778Z,100689.25
2023-03-01T01:13:48.570Z,100688.63
2023-03-01T01:16:16.558Z,100684.59
2023-03-01T01:18:43.733Z,100685.66
2023-03-01T01:21:14.365Z,100685.03
2023-03-01T01:23:43.670Z,100677.84
2023-03-01T01:26:13.773Z,100678.06
2023-03-01T01:28:40.961Z,100675.53
2023-03-01T01:31:08.579Z,100680.19
2023-03-01T01:33:35.643Z,100671.72
2023-03-01T01:36:02.307Z,100674.03
2023-03-01T01:38:29.641Z,100666.44
2023-03-01T01:40:56.473Z,100665.69
2023-03-01T01:43:34.419Z,100663.50
2023-03-01T01:46:06.659Z,100662.25
2023-03-01T01:48:42.475Z,100663.28
2023-03-01T01:51:16.509Z,100657.34
2023-03-01T01:53:45.521Z,100660.94
2023-03-01T01:56:14.093Z,100657.34
2023-03-01T01:58:43.294Z,100655.16
2023-03-01T02:01:10.064Z,100645.97
2023-03-01T02:03:43.446Z,100644.50
2023-03-01T02:06:20.593Z,100628.44
2023-03-01T02:08:48.640Z,100628.88
2023-03-01T02:11:16.000Z,100634.78
2023-03-01T02:13:43.882Z,100631.50
2023-03-01T02:16:14.359Z,100627.47
2023-03-01T02:18:43.358Z,100632.03
2023-03-01T02:21:28.958Z,100626.97
2023-03-01T02:23:59.189Z,100622.63
2023-03-01T02:26:38.110Z,100626.13
2023-03-01T02:29:06.879Z,100625.91
2023-03-01T02:34:11.804Z,100615.66
2023-03-01T02:36:43.398Z,100611.66
2023-03-01T02:39:17.771Z,100605.00
2023-03-01T02:41:49.258Z,100611.97
2023-03-01T02:44:17.099Z,100599.75
2023-03-01T02:46:53.506Z,100610.09
2023-03-01T02:49:32.998Z,100598.66
2023-03-01T02:52:11.623Z,100594.03
2023-03-01T02:54:42.432Z,100597.50
2023-03-01T02:57:10.288Z,100598.47
2023-03-01T03:02:09.600Z,100585.38
2023-03-01T03:04:36.333Z,100576.94
2023-03-01T03:07:03.002Z,100581.38
2023-03-01T03:09:29.833Z,100579.78
2023-03-01T03:11:56.527Z,100573.97
2023-03-01T03:14:23.442Z,100569.53
2023-03-01T03:16:51.699Z,100569.78
2023-03-01T03:19:20.493Z,100570.59
2023-03-01T03:21:47.585Z,100566.63
2023-03-01T03:24:17.954Z,100570.59
2023-03-01T03:26:44.599Z,100566.81
2023-03-01T03:29:11.284Z,100571.34
2023-03-01T03:31:38.297Z,100573.34
2023-03-01T03:34:05.066Z,100563.22
2023-03-01T03:36:31.981Z,100572.63
2023-03-01T03:38:58.789Z,100568.31
2023-03-01T03:41:25.553Z,100561.00
2023-03-01T03:43:52.276Z,100559.97
2023-03-01T03:46:19.222Z,100558.38
2023-03-01T03:48:46.771Z,100562.06
2023-03-01T03:51:15.764Z,100563.00
2023-03-01T03:53:42.531Z,100562.06
2023-03-01T03:56:09.846Z,100552.06
2023-03-01T03:58:37.098Z,100557.31
2023-03-01T04:01:04.468Z,100554.16
2023-03-01T04:03:33.360Z,100552.91
2023-03-01T04:06:01.643Z,100556.47
2023-03-01T04:08:29.314Z,100558.69
2023-03-01T04:11:23.119Z,100554.91
2023-03-01T04:13:50.599Z,100554.06
2023-03-01T04:16:18.945Z,100554.16
2023-03-01T04:18:46.400Z,100557.31
2023-03-01T04:21:13.355Z,100558.06
2023-03-01T04:26:08.518Z,100549.28
2023-03-01T04:31:18.537Z,100563.69
2023-03-01T04:33:48.055Z,100560.63
2023-03-01T04:36:16.997Z,100568.22
2023-03-01T04:38:48.811Z,100567.81
2023-03-01T04:41:17.662Z,100575.25
2023-03-01T04:43:44.452Z,100562.69
2023-03-01T04:46:17.242Z,100564.53
2023-03-01T04:48:45.531Z,100562.53
2023-03-01T04:51:15.809Z,100568.88
2023-03-01T04:53:43.515Z,100557.56
2023-03-01T04:56:11.458Z,100564.22
2023-03-01T04:58:38.505Z,100572.03
2023-03-01T05:01:31.752Z,100563.16
2023-03-01T05:04:04.077Z,100567.38
2023-03-01T05:06:31.212Z,100567.81
2023-03-01T05:08:58.198Z,100562.53
2023-03-01T05:11:24.972Z,100560.84
2023-03-01T05:13:56.030Z,100560.22
2023-03-01T05:16:22.945Z,100555.56
2023-03-01T05:18:51.657Z,100562.16
2023-03-01T05:21:18.506Z,100566.56
2023-03-01T05:23:46.177Z,100566.56
2023-03-01T05:26:27.494Z,100557.25
2023-03-01T05:29:00.415Z,100560.38
2023-03-01T05:31:28.244Z,100550.66
2023-03-01T05:33:55.092Z,100553.19
2023-03-01T05:36:21.958Z,100550.13
2023-03-01T05:38:48.678Z,100548.44
2023-03-01T05:41:18.247Z,100555.28
2023-03-01T05:43:46.202Z,100545.16
2023-03-01T05:46:14.609Z,100543.78
2023-03-01T05:51:08.150Z,100545.91
2023-03-01T05:53:34.987Z,100540.84
2023-03-01T05:56:05.121Z,100543.59
2023-03-01T05:58:32.003Z,100542.66
2023-03-01T06:00:59.213Z,100542.78
2023-03-01T06:03:28.880Z,100542.34
2023-03-01T06:06:03.369Z,100540.75
2023-03-01T06:08:30.035Z,100533.47
2023-03-01T06:10:57.081Z,100536.44
2023-03-01T06:13:24.766Z,100539.59
2023-03-01T06:15:51.969Z,100541.81
2023-03-01T06:18:18.850Z,100544.75
2023-03-01T06:20:45.615Z,100544.50
2023-03-01T06:23:19.860Z,100541.69
2023-03-01T06:25:46.715Z,100548.34
2023-03-01T06:28:13.518Z,100541.56
2023-03-01T06:30:40.231Z,100541.84
2023-03-01T06:33:07.035Z,100542.28
2023-03-01T06:35:34.396Z,100540.41
2023-03-01T06:38:06.845Z,100535.78
2023-03-01T06:40:38.764Z,100541.88
2023-03-01T06:43:05.559Z,100544.00
2023-03-01T06:45:32.207Z,100538.31
2023-03-01T06:48:08.745Z,100529.81
2023-03-01T06:50:37.117Z,100535.91
2023-03-01T06:53:03.942Z,100533.19
2023-03-01T06:55:31.385Z,100527.56
2023-03-01T06:57:59.801Z,100531.44
2023-03-01T07:00:28.017Z,100524.31
2023-03-01T07:02:55.879Z,100526.75
2023-03-01T07:05:22.598Z,100532.97
2023-03-01T07:07:49.307Z,100530.75
2023-03-01T07:10:16.228Z,100524.31
2023-03-01T07:12:42.922Z,100525.94
2023-03-01T07:15:10.909Z,100520.19
2023-03-01T07:17:37.631Z,100520.78
2023-03-01T07:20:04.973Z,100514.91
2023-03-01T07:22:31.680Z,100509.38
2023-03-01T07:24:58.298Z,100507.03
2023-03-01T07:27:25.111Z,100502.47
2023-03-01T07:29:51.800Z,100496.50
2023-03-01T07:32:18.602Z,100492.50
2023-03-01T07:34:45.328Z,100491.13
2023-03-01T07:37:11.958Z,100482.84
2023-03-01T07:39:38.604Z,100490.16
2023-03-01T07:42:05.271Z,100493.91
2023-03-01T07:44:31.932Z,100495.13
2023-03-01T07:46:59.360Z,100499.78
2023-03-01T07:49:27.562Z,100504.72
2023-03-01T07:51:54.488Z,100498.72
2023-03-01T07:54:21.644Z,100494.03
2023-03-01T07:56:48.330Z,100499.91
2023-03-01T07:59:15.278Z,100498.22
2023-03-01T08:04:09.979Z,100499.66
2023-03-01T08:06:37.322Z,100497.47
2023-03-01T08:09:04.268Z,100496.03
2023-03-01T08:11:31.064Z,100492.63
2023-03-01T08:13:58.597Z,100489.25
2023-03-01T08:16:25.544Z,100492.13
2023-03-01T08:18:52.308Z,100498.09
2023-03-01T08:21:19.228Z,100493.50
2023-03-01T08:23:46.297Z,100487.63
2023-03-01T08:26:16.188Z,100487.00
2023-03-01T08:28:42.936Z,100495.44
2023-03-01T08:31:23.400Z,100482.88
2023-03-01T08:33:56.417Z,100480.56
2023-03-01T08:36:28.303Z,100479.84
2023-03-01T08:38:55.996Z,100481.31
2023-03-01T08:41:23.826Z,100475.19
2023-03-01T08:43:51.532Z,100476.31
2023-03-01T08:46:18.641Z,100472.25
2023-03-01T08:48:45.354Z,100466.84
2023-03-01T08:51:16.346Z,100466.00
2023-03-01T08:53:43.014Z,100456.66
2023-03-01T08:56:10.712Z,100457.94
2023-03-01T08:58:38.731Z,100461.31
2023-03-01T09:01:10.651Z,100453.22
2023-03-01T09:03:38.958Z,100446.75
2023-03-01T09:06:08.640Z,100442.13
2023-03-01T09:08:39.761Z,100443.78
2023-03-01T09:11:08.716Z,100435.53
2023-03-01T09:13:35.750Z,100428.25
2023-03-01T09:16:04.456Z,100426.59
2023-03-01T09:18:31.790Z,100425.28
2023-03-01T09:21:08.202Z,100431.59
2023-03-01T09:23:43.932Z,100426.97
2023-03-01T09:26:17.733Z,100428.03
2023-03-01T09:28:45.722Z,100420.25
2023-03-01T09:31:14.095Z,100424.13
2023-03-01T09:36:13.646Z,100413.50
2023-03-01T09:38:40.635Z,100412.28
2023-03-01T09:41:44.617Z,100415.34
2023-03-01T09:44:22.028Z,100416.03
2023-03-01T09:46:49.459Z,100418.31
2023-03-01T09:49:32.089Z,100412.84
2023-03-01T09:52:03.931Z,100404.31
2023-03-01T09:54:30.814Z,100410.81
2023-03-01T09:57:18.931Z,100407.19
2023-03-01T10:00:08.657Z,100404.28
2023-03-01T10:05:30.606Z,100386.97
2023-03-01T10:08:30.578Z,100397.19
2023-03-01T10:10:58.508Z,100393.31
2023-03-01T10:13:43.639Z,100386.97
2023-03-01T10:16:18.352Z,100385.16
2023-03-01T10:18:50.366Z,100381.50
2023-03-01T10:21:20.797Z,100378.00
2023-03-01T10:23:51.887Z,100376.22
2023-03-01T10:26:43.920Z,100376.28
2023-03-01T10:29:12.705Z,100376.09
2023-03-01T10:31:43.546Z,100381.47
2023-03-01T10:34:21.497Z,100372.56
2023-03-01T10:36:53.784Z,100380.84
2023-03-01T10:39:26.998Z,100371.56
2023-03-01T10:41:58.052Z,100372.59
2023-03-01T10:44:43.636Z,100366.34
2023-03-01T10:47:21.542Z,100370.41
2023-03-01T10:50:03.626Z,100369.66
2023-03-01T10:52:35.089Z,100360.81
2023-03-01T10:55:26.374Z,100355.22
2023-03-01T10:58:25.258Z,100345.38
2023-03-01T11:00:55.725Z,100342.50
2023-03-01T11:03:35.425Z,100336.84
2023-03-01T11:06:22.636Z,100336.69
2023-03-01T11:08:51.875Z,100314.41
2023-03-01T11:11:22.559Z,100320.97
2023-03-01T11:14:01.793Z,100319.75
2023-03-01T11:16:39.574Z,100313.19
2023-03-01T11:19:12.104Z,100312.44
2023-03-01T11:24:15.345Z,100308.19
2023-03-01T11:26:42.686Z,100298.75
2023-03-01T11:32:12.852Z,100303.25
2023-03-01T11:34:43.727Z,100301.50
2023-03-01T11:37:26.056Z,100304.53
2023-03-01T11:40:13.756Z,100300.56
2023-03-01T11:42:42.717Z,100291.06
2023-03-01T11:45:13.614Z,100284.81
2023-03-01T11:47:43.790Z,100282.19
2023-03-01T11:50:16.794Z,100277.28
2023-03-01T11:52:54.173Z,100272.44
2023-03-01T11:55:26.705Z,100267.69
2023-03-01T11:58:14.629Z,100260.56
2023-03-01T12:00:44.168Z,100251.88
2023-03-01T12:03:32.075Z,100259.09
2023-03-01T12:06:10.655Z,100243.25
2023-03-01T12:08:43.798Z,100238.16
2023-03-01T12:11:43.930Z,100229.84
2023-03-01T12:14:43.727Z,100221.03
2023-03-01T12:17:19.931Z,100224.50
2023-03-01T12:20:05.030Z,100217.03
2023-03-01T12:22:43.613Z,100212.38
2023-03-01T12:25:43.718Z,100200.06
2023-03-01T12:28:25.298Z,100199.56
2023-03-01T12:31:03.981Z,100195.69
2023-03-01T12:33:44.092Z,100194.41
2023-03-01T12:36:29.856Z,100187.81
2023-03-01T12:39:04.342Z,100190.41
2023-03-01T12:41:43.666Z,100187.56
2023-03-01T12:44:44.908Z,100179.69
2023-03-01T12:47:26.762Z,100180.53
2023-03-01T12:49:59.243Z,100167.47
2023-03-01T12:52:29.046Z,100161.16
2023-03-01T12:54:59.179Z,100147.63
2023-03-01T12:57:38.227Z,100133.56
2023-03-01T13:00:27.497Z,100140.25
2023-03-01T13:03:08.341Z,100145.88
2023-03-01T13:05:43.771Z,100133.16
2023-03-01T13:08:20.642Z,100133.16
2023-03-01T13:10:55.083Z,100121.09
2023-03-01T13:13:26.775Z,100128.75
2023-03-01T13:15:54.524Z,100115.75
2023-03-01T13:18:21.225Z,100108.88
2023-03-01T13:20:50.159Z,100106.63
2023-03-01T13:23:22.822Z,100105.31
2023-03-01T13:26:01.572Z,100096.19
2023-03-01T13:28:37.091Z,100091.44
2023-03-01T13:31:06.109Z,100094.78
2023-03-01T13:33:34.319Z,100089.31
2023-03-01T13:36:02.306Z,100088.75
2023-03-01T13:41:44.748Z,100097.19
2023-03-01T13:44:25.445Z,100098.59
2023-03-01T13:46:58.803Z,100098.84
2023-03-01T13:49:46.619Z,100096.75
2023-03-01T13:52:38.807Z,100093.13
2023-03-01T13:55:17.800Z,100095.31
2023-03-01T13:57:51.073Z,100103.59
2023-03-01T14:00:38.573Z,100093.47
2023-03-01T14:03:13.376Z,100091.50
2023-03-01T14:05:42.701Z,100082.16
2023-03-01T14:08:24.848Z,100086.81
2023-03-01T14:11:06.747Z,100085.94
2023-03-01T14:13:51.028Z,100078.97
2023-03-01T14:16:26.729Z,100071.00
2023-03-01T14:19:27.677Z,100076.25
2023-03-01T14:22:20.835Z,100069.72
2023-03-01T14:27:16.148Z,100070.47
2023-03-01T14:29:43.263Z,100060.81
2023-03-01T14:32:32.168Z,100073.97
2023-03-01T14:35:00.779Z,100055.09
2023-03-01T14:37:31.635Z,100063.31
2023-03-01T14:40:00.324Z,100060.06
2023-03-01T14:42:32.074Z,100059.72
2023-03-01T14:45:01.516Z,100060.50
2023-03-01T14:47:31.815Z,100053.72
2023-03-01T14:50:16.277Z,100056.94
2023-03-01T14:52:47.741Z,100050.16
2023-03-01T14:55:31.503Z,100050.13
2023-03-01T14:57:59.424Z,100039.63
2023-03-01T15:00:31.576Z,100047.97
2023-03-01T15:03:04.512Z,100042.25
2023-03-01T15:05:33.989Z,100036.44
2023-03-01T15:08:02.838Z,100048.59
2023-03-01T15:10:32.417Z,100048.44
2023-03-01T15:13:13.331Z,100048.41
2023-03-01T15:15:44.523Z,100049.19
2023-03-01T15:18:23.674Z,100047.50
2023-03-01T15:20:51.163Z,100049.91
2023-03-01T15:23:29.361Z,100047.53
2023-03-01T15:26:01.734Z,100046.25
2023-03-01T15:28:51.101Z,100047.19
2023-03-01T15:31:23.801Z,100048.88
2023-03-01T15:33:51.405Z,100050.69
2023-03-01T15:36:33.365Z,100046.03
2023-03-01T15:39:01.259Z,100050.47
2023-03-01T15:41:46.551Z,100056.75
2023-03-01T15:44:35.000Z,100056.56
2023-03-01T15:47:32.867Z,100054.91
2023-03-01T15:50:02.480Z,100047.41
2023-03-01T15:52:37.874Z,100047.19
2023-03-01T15:55:16.847Z,100047.00
2023-03-01T15:57:43.914Z,100050.56
2023-03-01T16:00:15.235Z,100045.50
2023-03-01T16:02:43.665Z,100045.78
2023-03-01T16:05:32.359Z,100054.19
2023-03-01T16:07:59.282Z,100059.13
2023-03-01T16:10:26.392Z,100062.81
2023-03-01T16:12:53.766Z,100055.88
2023-03-01T16:15:23.415Z,100057.13
2023-03-01T16:17:51.213Z,100064.09
2023-03-01T16:20:28.058Z,100063.25
2023-03-01T16:22:59.079Z,100068.38
2023-03-01T16:25:25.769Z,100070.22
2023-03-01T16:27:52.606Z,100064.00
2023-03-01T16:30:22.850Z,100073.06
2023-03-01T16:32:51.638Z,100070.44
2023-03-01T16:35:21.665Z,100076.63
2023-03-01T16:40:27.949Z,100076.94
2023-03-01T16:43:00.552Z,100075.38
2023-03-01T16:45:39.887Z,100075.28
2023-03-01T16:48:06.727Z,100084.69
2023-03-01T16:50:33.752Z,100079.22
2023-03-01T16:53:03.708Z,100091.97
2023-03-01T16:55:30.442Z,100085.13
2023-03-01T16:57:57.224Z,100084.47
2023-03-01T17:00:24.220Z,100085.81
2023-03-01T17:02:51.019Z,100090.16
2023-03-01T17:05:19.017Z,100085.84
2023-03-01T17:07:45.690Z,100086.50
2023-03-01T17:10:12.538Z,100091.16
2023-03-01T17:12:39.359Z,100101.03
2023-03-01T17:15:07.713Z,100100.53
2023-03-01T17:17:35.806Z,100102.19
2023-03-01T17:20:04.798Z,100095.81
2023-03-01T17:22:31.803Z,100101.34
2023-03-01T17:24:58.845Z,100103.50
2023-03-01T17:27:25.657Z,100105.16
2023-03-01T17:29:52.452Z,100099.81
2023-03-01T17:32:19.348Z,100113.13
2023-03-01T17:34:46.850Z,100108.63
2023-03-01T17:37:13.573Z,100113.13
2023-03-01T17:39:40.293Z,100104.41
2023-03-01T17:42:07.328Z,100100.84
2023-03-01T17:44:35.484Z,100117.38
2023-03-01T17:47:04.138Z,100109.38
2023-03-01T17:49:31.458Z,100118.38
2023-03-01T17:52:01.526Z,100109.84
2023-03-01T17:54:28.975Z,100112.16
2023-03-01T17:56:56.586Z,100114.28
2023-03-01T17:59:24.039Z,100116.28
2023-03-01T18:01:51.199Z,100121.25
2023-03-01T18:04:18.749Z,100116.91
2023-03-01T18:06:45.796Z,100118.50
2023-03-01T18:09:12.461Z,100116.31
2023-03-01T18:11:39.749Z,100122.13
2023-03-01T18:14:06.469Z,100125.09
2023-03-01T18:16:34.518Z,100127.91
2023-03-01T18:19:01.976Z,100128.72
2023-03-01T18:21:30.731Z,100130.84
2023-03-01T18:23:59.793Z,100130.31
2023-03-01T18:26:28.129Z,100130.63
2023-03-01T18:28:58.451Z,100134.91
2023-03-01T18:31:25.714Z,100140.34
2023-03-01T18:33:55.232Z,100136.16
2023-03-01T18:36:25.816Z,100146.75
2023-03-01T18:38:55.573Z,100158.06
2023-03-01T18:41:27.688Z,100141.56
2023-03-01T18:43:56.112Z,100144.69
2023-03-01T18:46:23.187Z,100135.72
2023-03-01T18:51:19.021Z,100134.63
2023-03-01T18:53:45.822Z,100131.63
2023-03-01T18:56:13.858Z,100139.31
2023-03-01T18:58:45.951Z,100141.13
2023-03-01T19:01:20.979Z,100146.22
2023-03-01T19:03:48.799Z,100142.19
2023-03-01T19:06:16.408Z,100149.69
2023-03-01T19:08:44.570Z,100140.97
2023-03-01T19:11:17.518Z,100153.72
2023-03-01T19:13:46.052Z,100162.09
2023-03-01T19:16:19.604Z,100154.97
2023-03-01T19:21:16.945Z,100158.22
2023-03-01T19:23:44.060Z,100160.19
2023-03-01T19:26:14.310Z,100167.47
2023-03-01T19:28:41.808Z,100160.31
2023-03-01T19:31:12.063Z,100162.56
2023-03-01T19:33:41.856Z,100164.25
2023-03-01T19:36:10.879Z,100154.59
2023-03-01T19:38:39.735Z,100161.78
2023-03-01T19:41:09.318Z,100141.09
2023-03-01T19:43:36.490Z,100156.66
2023-03-01T19:46:04.020Z,100150.22
2023-03-01T19:48:31.392Z,100144.22
2023-03-01T19:50:59.878Z,100151.38
2023-03-01T19:53:27.042Z,100156.84
2023-03-01T19:56:02.015Z,100157.72
2023-03-01T19:58:31.251Z,100160.78
2023-03-01T20:01:01.133Z,100162.16
2023-03-01T20:03:29.976Z,100157.72
2023-03-01T20:05:58.518Z,100153.88
2023-03-01T20:08:26.437Z,100147.44
2023-03-01T20:10:53.251Z,100149.69
2023-03-01T20:13:21.397Z,100148.25
2023-03-01T20:15:48.298Z,100145.13
2023-03-01T20:18:15.323Z,100149.19
2023-03-01T20:20:42.008Z,100148.34
2023-03-01T20:23:09.590Z,100140.81
2023-03-01T20:25:36.311Z,100138.41
2023-03-01T20:28:03.622Z,100135.63
2023-03-01T20:30:31.505Z,100148.63
2023-03-01T20:32:58.204Z,100150.03
2023-03-01T20:35:25.805Z,100150.50
2023-03-01T20:37:53.593Z,100151.84
2023-03-01T20:40:21.551Z,100156.75
2023-03-01T20:42:48.791Z,100151.13
2023-03-01T20:45:15.549Z,100150.91
2023-03-01T20:47:42.245Z,100148.09
2023-03-01T20:50:10.349Z,100146.97
2023-03-01T20:52:47.097Z,100151.75
2023-03-01T20:55:15.169Z,100146.72
2023-03-01T20:57:42.213Z,100149.50
2023-03-01T21:00:10.160Z,100147.56
2023-03-01T21:02:39.176Z,100150.50
2023-03-01T21:05:06.549Z,100143.06
2023-03-01T21:07:33.288Z,100142.38
2023-03-01T21:10:03.305Z,100142.25
2023-03-01T21:12:31.230Z,100144.75
2023-03-01T21:14:58.033Z,100141.97
2023-03-01T21:17:24.942Z,100146.72
2023-03-01T21:19:51.754Z,100137.78
2023-03-01T21:22:18.662Z,100135.69
2023-03-01T21:24:45.467Z,100138.91
2023-03-01T21:27:12.983Z,100138.47
2023-03-01T21:29:41.912Z,100142.53
2023-03-01T21:32:10.198Z,100127.56
2023-03-01T21:34:38.192Z,100138.47
2023-03-01T21:37:05.849Z,100131.66
2023-03-01T21:39:33.993Z,100128.84
2023-03-01T21:42:02.633Z,100136.66
2023-03-01T21:44:31.911Z,100136.69
2023-03-01T21:46:59.344Z,100130.81
2023-03-01T21:49:27.296Z,100136.41
2023-03-01T21:51:54.326Z,100138.91
2023-03-01T21:54:21.511Z,100140.28
2023-03-01T21:59:18.713Z,100134.84
2023-03-01T22:01:46.270Z,100132.56
2023-03-01T22:04:13.705Z,100137.63
2023-03-01T22:06:43.524Z,100132.41
2023-03-01T22:09:18.388Z,100128.28
2023-03-01T22:11:48.903Z,100126.81
2023-03-01T22:14:18.149Z,100129.63
2023-03-01T22:16:46.494Z,100129.72
2023-03-01T22:19:15.399Z,100127.41
2023-03-01T22:21:44.205Z,100124.63
2023-03-01T22:24:11.789Z,100123.13
2023-03-01T22:26:42.142Z,100125.00
2023-03-01T22:29:13.928Z,100124.84
2023-03-01T22:31:41.687Z,100124.88
2023-03-01T22:34:09.516Z,100117.91
2023-03-01T22:36:36.896Z,100125.44
2023-03-01T22:39:04.473Z,100121.53
2023-03-01T22:44:20.462Z,100115.53
2023-03-01T22:46:47.425Z,100104.25
2023-03-01T22:49:14.742Z,100113.84
2023-03-01T22:51:44.195Z,100100.38
2023-03-01T22:54:12.621Z,100102.00
2023-03-01T22:56:39.872Z,100111.53
2023-03-01T22:59:09.847Z,100107.44
2023-03-01T23:01:38.664Z,100111.34
2023-03-01T23:04:06.424Z,100111.34
2023-03-01T23:06:34.286Z,100104.25
2023-03-01T23:09:06.986Z,100104.91
2023-03-01T23:11:34.365Z,100113.16
2023-03-01T23:14:01.179Z,100098.63
2023-03-01T23:16:31.834Z,100098.09
2023-03-01T23:18:59.455Z,100098.38
2023-03-01T23:21:27.116Z,100098.25
2023-03-01T23:23:57.666Z,100097.66
2023-03-01T23:26:29.567Z,100099.91
2023-03-01T23:28:57.823Z,100093.63
2023-03-01T23:31:32.656Z,100084.41
2023-03-01T23:33:59.579Z,100097.81
2023-03-01T23:36:29.440Z,100090.53
2023-03-01T23:38:59.884Z,100093.56
2023-03-01T23:41:28.705Z,100087.44
2023-03-01T23:43:58.205Z,100087.84
2023-03-01T23:46:28.649Z,100088.72
2023-03-01T23:48:56.410Z,100088.13
2023-03-01T23:51:24.424Z,100077.13
2023-03-01T23:54:00.193Z,100076.03
2023-03-01T23:56:29.824Z,100075.28
2023-03-01T23:59:00.211Z,100080.47
